sensor_id;sensor_type;location;lat;lon;timestamp;temperature;humidity
18291;DHT22;9271;48.590;8.866;2022-08-11T00:01:05;19.40;49.90
18291;DHT22;9271;48.590;8.866;2022-08-11T00:03:34;19.30;50.20
18291;DHT22;9271;48.590;8.866;2022-08-11T00:06:02;19.20;50.40
18291;DHT22;9271;48.590;8.866;2022-08-11T00:08:30;19.20;50.80
18291;DHT22;9271;48.590;8.866;2022-08-11T00:10:59;18.90;50.60
18291;DHT22;9271;48.590;8.866;2022-08-11T00:13:35;18.80;51.80
18291;DHT22;9271;48.590;8.866;2022-08-11T00:16:04;18.90;51.30
18291;DHT22;9271;48.590;8.866;2022-08-11T00:18:41;18.90;51.60
18291;DHT22;9271;48.590;8.866;2022-08-11T00:21:10;18.90;51.40
18291;DHT22;9271;48.590;8.866;2022-08-11T00:23:42;18.90;51.80
18291;DHT22;9271;48.590;8.866;2022-08-11T00:26:10;19.00;51.40
18291;DHT22;9271;48.590;8.866;2022-08-11T00:28:37;19.00;51.60
18291;DHT22;9271;48.590;8.866;2022-08-11T00:31:06;18.90;52.30
18291;DHT22;9271;48.590;8.866;2022-08-11T00:33:37;19.00;51.40
18291;DHT22;9271;48.590;8.866;2022-08-11T00:36:07;19.10;50.80
18291;DHT22;9271;48.590;8.866;2022-08-11T00:38:37;19.10;51.10
18291;DHT22;9271;48.590;8.866;2022-08-11T00:41:20;19.00;51.00
18291;DHT22;9271;48.590;8.866;2022-08-11T00:46:56;19.20;50.90
18291;DHT22;9271;48.590;8.866;2022-08-11T00:49:37;19.10;50.80
18291;DHT22;9271;48.590;8.866;2022-08-11T00:52:17;19.00;50.90
18291;DHT22;9271;48.590;8.866;2022-08-11T00:55:05;19.10;50.70
18291;DHT22;9271;48.590;8.866;2022-08-11T00:57:55;19.10;50.70
18291;DHT22;9271;48.590;8.866;2022-08-11T01:00:48;19.10;50.90
18291;DHT22;9271;48.590;8.866;2022-08-11T01:03:31;19.10;51.20
18291;DHT22;9271;48.590;8.866;2022-08-11T01:09:27;19.10;50.60
18291;DHT22;9271;48.590;8.866;2022-08-11T01:12:23;19.30;49.90
18291;DHT22;9271;48.590;8.866;2022-08-11T01:15:27;19.20;50.30
18291;DHT22;9271;48.590;8.866;2022-08-11T01:21:36;19.10;50.40
18291;DHT22;9271;48.590;8.866;2022-08-11T01:27:39;19.00;50.30
18291;DHT22;9271;48.590;8.866;2022-08-11T01:30:47;19.10;50.60
18291;DHT22;9271;48.590;8.866;2022-08-11T01:33:51;19.10;50.80
18291;DHT22;9271;48.590;8.866;2022-08-11T01:39:55;18.90;51.10
18291;DHT22;9271;48.590;8.866;2022-08-11T01:42:56;18.80;51.60
18291;DHT22;9271;48.590;8.866;2022-08-11T01:45:49;18.60;51.80
18291;DHT22;9271;48.590;8.866;2022-08-11T01:48:26;18.60;52.00
18291;DHT22;9271;48.590;8.866;2022-08-11T01:51:07;18.60;51.70
18291;DHT22;9271;48.590;8.866;2022-08-11T01:53:50;18.70;51.70
18291;DHT22;9271;48.590;8.866;2022-08-11T01:56:28;18.70;52.00
18291;DHT22;9271;48.590;8.866;2022-08-11T01:59:07;18.70;52.00
18291;DHT22;9271;48.590;8.866;2022-08-11T02:01:44;18.70;52.00
18291;DHT22;9271;48.590;8.866;2022-08-11T02:04:23;18.60;52.20
18291;DHT22;9271;48.590;8.866;2022-08-11T02:06:57;18.60;52.40
18291;DHT22;9271;48.590;8.866;2022-08-11T02:09:44;18.50;52.30
18291;DHT22;9271;48.590;8.866;2022-08-11T02:12:27;18.60;52.20
18291;DHT22;9271;48.590;8.866;2022-08-11T02:15:05;18.60;52.20
18291;DHT22;9271;48.590;8.866;2022-08-11T02:17:46;18.60;52.10
18291;DHT22;9271;48.590;8.866;2022-08-11T02:20:19;18.60;51.90
18291;DHT22;9271;48.590;8.866;2022-08-11T02:23:21;18.50;52.10
18291;DHT22;9271;48.590;8.866;2022-08-11T02:26:19;18.40;53.00
18291;DHT22;9271;48.590;8.866;2022-08-11T02:28:59;18.30;52.90
18291;DHT22;9271;48.590;8.866;2022-08-11T02:31:41;18.40;53.10
18291;DHT22;9271;48.590;8.866;2022-08-11T02:34:37;18.40;53.00
18291;DHT22;9271;48.590;8.866;2022-08-11T02:37:16;18.30;53.60
18291;DHT22;9271;48.590;8.866;2022-08-11T02:39:50;18.40;52.70
18291;DHT22;9271;48.590;8.866;2022-08-11T02:42:27;18.20;53.30
18291;DHT22;9271;48.590;8.866;2022-08-11T02:45:07;18.30;53.30
18291;DHT22;9271;48.590;8.866;2022-08-11T02:47:47;18.30;52.90
18291;DHT22;9271;48.590;8.866;2022-08-11T02:50:35;18.30;53.10
18291;DHT22;9271;48.590;8.866;2022-08-11T02:53:08;18.30;53.20
18291;DHT22;9271;48.590;8.866;2022-08-11T02:55:46;18.30;52.90
18291;DHT22;9271;48.590;8.866;2022-08-11T02:58:33;18.30;53.50
18291;DHT22;9271;48.590;8.866;2022-08-11T03:01:09;18.40;52.90
18291;DHT22;9271;48.590;8.866;2022-08-11T03:03:48;18.30;53.50
18291;DHT22;9271;48.590;8.866;2022-08-11T03:06:25;18.20;53.40
18291;DHT22;9271;48.590;8.866;2022-08-11T03:09:00;18.20;53.90
18291;DHT22;9271;48.590;8.866;2022-08-11T03:11:44;18.00;54.30
18291;DHT22;9271;48.590;8.866;2022-08-11T03:14:48;18.00;53.90
18291;DHT22;9271;48.590;8.866;2022-08-11T03:17:39;18.00;54.10
18291;DHT22;9271;48.590;8.866;2022-08-11T03:20:20;18.00;54.00
18291;DHT22;9271;48.590;8.866;2022-08-11T03:22:56;18.00;54.30
18291;DHT22;9271;48.590;8.866;2022-08-11T03:25:31;18.00;54.10
18291;DHT22;9271;48.590;8.866;2022-08-11T03:28:04;18.00;54.30
18291;DHT22;9271;48.590;8.866;2022-08-11T03:30:47;17.90;54.70
18291;DHT22;9271;48.590;8.866;2022-08-11T03:33:20;17.90;54.40
18291;DHT22;9271;48.590;8.866;2022-08-11T03:36:27;17.80;54.90
18291;DHT22;9271;48.590;8.866;2022-08-11T03:39:15;17.80;55.60
18291;DHT22;9271;48.590;8.866;2022-08-11T03:41:51;17.70;55.80
18291;DHT22;9271;48.590;8.866;2022-08-11T03:44:33;17.70;56.20
18291;DHT22;9271;48.590;8.866;2022-08-11T03:47:41;17.50;56.40
18291;DHT22;9271;48.590;8.866;2022-08-11T03:50:21;17.40;56.60
18291;DHT22;9271;48.590;8.866;2022-08-11T03:52:57;17.40;57.00
18291;DHT22;9271;48.590;8.866;2022-08-11T03:55:32;17.30;56.80
18291;DHT22;9271;48.590;8.866;2022-08-11T03:58:27;17.40;57.00
18291;DHT22;9271;48.590;8.866;2022-08-11T04:01:37;17.50;56.60
18291;DHT22;9271;48.590;8.866;2022-08-11T04:04:51;17.40;56.40
18291;DHT22;9271;48.590;8.866;2022-08-11T04:10:55;17.40;56.30
18291;DHT22;9271;48.590;8.866;2022-08-11T04:13:39;17.40;56.50
18291;DHT22;9271;48.590;8.866;2022-08-11T04:16:28;17.40;56.50
18291;DHT22;9271;48.590;8.866;2022-08-11T04:19:39;17.50;56.90
18291;DHT22;9271;48.590;8.866;2022-08-11T04:22:47;17.50;56.90
18291;DHT22;9271;48.590;8.866;2022-08-11T04:25:33;17.50;56.90
18291;DHT22;9271;48.590;8.866;2022-08-11T04:28:39;17.50;56.90
18291;DHT22;9271;48.590;8.866;2022-08-11T04:31:27;17.40;57.00
18291;DHT22;9271;48.590;8.866;2022-08-11T04:34:11;17.50;56.90
18291;DHT22;9271;48.590;8.866;2022-08-11T04:43:36;17.70;56.60
18291;DHT22;9271;48.590;8.866;2022-08-11T04:46:26;17.70;56.80
18291;DHT22;9271;48.590;8.866;2022-08-11T04:52:40;17.70;57.00
18291;DHT22;9271;48.590;8.866;2022-08-11T04:56:06;17.80;56.70
18291;DHT22;9271;48.590;8.866;2022-08-11T04:59:09;17.90;56.50
18291;DHT22;9271;48.590;8.866;2022-08-11T05:02:15;18.00;56.30
18291;DHT22;9271;48.590;8.866;2022-08-11T05:04:58;18.10;56.20
18291;DHT22;9271;48.590;8.866;2022-08-11T05:08:15;18.20;56.30
18291;DHT22;9271;48.590;8.866;2022-08-11T05:11:05;18.20;56.20
18291;DHT22;9271;48.590;8.866;2022-08-11T05:13:37;18.20;56.40
18291;DHT22;9271;48.590;8.866;2022-08-11T05:16:30;18.30;56.60
18291;DHT22;9271;48.590;8.866;2022-08-11T05:19:16;18.40;55.90
18291;DHT22;9271;48.590;8.866;2022-08-11T05:22:02;18.60;55.80
18291;DHT22;9271;48.590;8.866;2022-08-11T05:24:56;18.80;55.50
18291;DHT22;9271;48.590;8.866;2022-08-11T05:27:49;18.80;55.50
18291;DHT22;9271;48.590;8.866;2022-08-11T05:30:37;19.00;55.10
18291;DHT22;9271;48.590;8.866;2022-08-11T05:33:32;19.20;55.10
18291;DHT22;9271;48.590;8.866;2022-08-11T05:36:24;19.30;55.20
18291;DHT22;9271;48.590;8.866;2022-08-11T05:38:56;19.40;54.40
18291;DHT22;9271;48.590;8.866;2022-08-11T05:41:41;19.60;54.30
18291;DHT22;9271;48.590;8.866;2022-08-11T05:44:26;19.80;53.70
18291;DHT22;9271;48.590;8.866;2022-08-11T05:47:21;20.00;53.90
18291;DHT22;9271;48.590;8.866;2022-08-11T05:50:09;20.10;54.00
18291;DHT22;9271;48.590;8.866;2022-08-11T05:52:54;20.40;53.80
18291;DHT22;9271;48.590;8.866;2022-08-11T05:55:40;20.70;52.50
18291;DHT22;9271;48.590;8.866;2022-08-11T05:58:26;20.80;52.60
18291;DHT22;9271;48.590;8.866;2022-08-11T06:00:57;21.00;51.50
18291;DHT22;9271;48.590;8.866;2022-08-11T06:03:27;21.10;52.20
18291;DHT22;9271;48.590;8.866;2022-08-11T06:05:56;21.30;51.90
18291;DHT22;9271;48.590;8.866;2022-08-11T06:08:27;21.40;51.50
18291;DHT22;9271;48.590;8.866;2022-08-11T06:10:59;21.60;51.00
18291;DHT22;9271;48.590;8.866;2022-08-11T06:13:26;21.80;51.20
18291;DHT22;9271;48.590;8.866;2022-08-11T06:15:53;21.90;50.50
18291;DHT22;9271;48.590;8.866;2022-08-11T06:18:21;22.10;50.70
18291;DHT22;9271;48.590;8.866;2022-08-11T06:20:50;22.30;50.70
18291;DHT22;9271;48.590;8.866;2022-08-11T06:23:20;22.50;50.30
18291;DHT22;9271;48.590;8.866;2022-08-11T06:25:49;22.60;49.60
18291;DHT22;9271;48.590;8.866;2022-08-11T06:28:16;22.80;48.90
18291;DHT22;9271;48.590;8.866;2022-08-11T06:30:46;22.80;49.80
18291;DHT22;9271;48.590;8.866;2022-08-11T06:33:16;22.90;47.70
18291;DHT22;9271;48.590;8.866;2022-08-11T06:35:51;23.10;47.70
18291;DHT22;9271;48.590;8.866;2022-08-11T06:38:36;23.20;49.20
18291;DHT22;9271;48.590;8.866;2022-08-11T06:41:11;23.40;47.70
18291;DHT22;9271;48.590;8.866;2022-08-11T06:44:14;23.70;47.70
18291;DHT22;9271;48.590;8.866;2022-08-11T06:46:42;24.10;46.20
18291;DHT22;9271;48.590;8.866;2022-08-11T06:49:11;24.30;46.00
18291;DHT22;9271;48.590;8.866;2022-08-11T06:51:53;24.70;45.90
18291;DHT22;9271;48.590;8.866;2022-08-11T06:54:22;24.80;45.00
18291;DHT22;9271;48.590;8.866;2022-08-11T06:56:49;25.10;45.20
18291;DHT22;9271;48.590;8.866;2022-08-11T06:59:35;25.40;45.20
18291;DHT22;9271;48.590;8.866;2022-08-11T07:02:23;25.20;45.60
18291;DHT22;9271;48.590;8.866;2022-08-11T07:04:58;25.40;45.20
18291;DHT22;9271;48.590;8.866;2022-08-11T07:10:56;25.50;44.70
18291;DHT22;9271;48.590;8.866;2022-08-11T07:13:45;25.90;43.90
18291;DHT22;9271;48.590;8.866;2022-08-11T07:16:30;26.90;42.20
18291;DHT22;9271;48.590;8.866;2022-08-11T07:19:03;27.60;40.80
18291;DHT22;9271;48.590;8.866;2022-08-11T07:21:48;28.90;38.00
18291;DHT22;9271;48.590;8.866;2022-08-11T07:24:36;29.80;35.90
18291;DHT22;9271;48.590;8.866;2022-08-11T07:27:26;31.30;33.40
18291;DHT22;9271;48.590;8.866;2022-08-11T07:30:12;32.30;32.00
18291;DHT22;9271;48.590;8.866;2022-08-11T07:32:46;33.20;29.90
18291;DHT22;9271;48.590;8.866;2022-08-11T07:35:17;34.00;29.50
18291;DHT22;9271;48.590;8.866;2022-08-11T07:37:47;34.60;28.60
18291;DHT22;9271;48.590;8.866;2022-08-11T07:40:20;34.70;28.10
18291;DHT22;9271;48.590;8.866;2022-08-11T07:42:49;35.10;28.60
18291;DHT22;9271;48.590;8.866;2022-08-11T07:45:18;35.00;27.70
18291;DHT22;9271;48.590;8.866;2022-08-11T07:48:04;35.20;27.10
18291;DHT22;9271;48.590;8.866;2022-08-11T07:50:50;36.40;26.30
18291;DHT22;9271;48.590;8.866;2022-08-11T07:53:34;37.60;25.40
18291;DHT22;9271;48.590;8.866;2022-08-11T07:56:03;38.90;24.70
18291;DHT22;9271;48.590;8.866;2022-08-11T07:58:34;38.90;24.00
18291;DHT22;9271;48.590;8.866;2022-08-11T08:01:21;38.60;23.90
18291;DHT22;9271;48.590;8.866;2022-08-11T08:04:07;39.00;24.00
18291;DHT22;9271;48.590;8.866;2022-08-11T08:06:53;39.30;23.70
18291;DHT22;9271;48.590;8.866;2022-08-11T08:09:38;39.50;22.60
18291;DHT22;9271;48.590;8.866;2022-08-11T08:12:24;38.70;23.10
18291;DHT22;9271;48.590;8.866;2022-08-11T08:15:13;38.80;23.80
18291;DHT22;9271;48.590;8.866;2022-08-11T08:17:59;39.00;23.00
18291;DHT22;9271;48.590;8.866;2022-08-11T08:20:27;39.40;23.50
18291;DHT22;9271;48.590;8.866;2022-08-11T08:22:57;39.50;22.40
18291;DHT22;9271;48.590;8.866;2022-08-11T08:25:25;38.50;23.20
18291;DHT22;9271;48.590;8.866;2022-08-11T08:27:53;38.50;23.00
18291;DHT22;9271;48.590;8.866;2022-08-11T08:30:23;39.20;23.40
18291;DHT22;9271;48.590;8.866;2022-08-11T08:33:21;39.70;21.90
18291;DHT22;9271;48.590;8.866;2022-08-11T08:35:51;40.20;21.80
18291;DHT22;9271;48.590;8.866;2022-08-11T08:38:36;40.20;21.00
18291;DHT22;9271;48.590;8.866;2022-08-11T08:41:03;39.00;22.30
18291;DHT22;9271;48.590;8.866;2022-08-11T08:43:31;39.30;23.20
18291;DHT22;9271;48.590;8.866;2022-08-11T08:46:00;39.50;21.50
18291;DHT22;9271;48.590;8.866;2022-08-11T08:48:30;39.40;22.30
18291;DHT22;9271;48.590;8.866;2022-08-11T08:51:02;39.40;21.70
18291;DHT22;9271;48.590;8.866;2022-08-11T08:53:49;38.30;22.20
18291;DHT22;9271;48.590;8.866;2022-08-11T08:56:17;37.10;22.80
18291;DHT22;9271;48.590;8.866;2022-08-11T08:58:47;37.10;23.10
18291;DHT22;9271;48.590;8.866;2022-08-11T09:01:16;37.90;22.90
18291;DHT22;9271;48.590;8.866;2022-08-11T09:03:44;38.10;23.00
18291;DHT22;9271;48.590;8.866;2022-08-11T09:06:12;38.70;21.30
18291;DHT22;9271;48.590;8.866;2022-08-11T09:08:41;38.70;21.90
18291;DHT22;9271;48.590;8.866;2022-08-11T09:11:10;38.40;22.20
18291;DHT22;9271;48.590;8.866;2022-08-11T09:13:55;38.20;21.50
18291;DHT22;9271;48.590;8.866;2022-08-11T09:16:23;38.10;21.90
18291;DHT22;9271;48.590;8.866;2022-08-11T09:18:51;38.20;21.80
18291;DHT22;9271;48.590;8.866;2022-08-11T09:21:18;38.80;20.90
18291;DHT22;9271;48.590;8.866;2022-08-11T09:23:48;39.60;21.30
18291;DHT22;9271;48.590;8.866;2022-08-11T09:26:34;40.40;20.60
18291;DHT22;9271;48.590;8.866;2022-08-11T09:29:20;40.60;20.10
18291;DHT22;9271;48.590;8.866;2022-08-11T09:31:48;40.00;20.20
18291;DHT22;9271;48.590;8.866;2022-08-11T09:34:16;39.20;20.70
18291;DHT22;9271;48.590;8.866;2022-08-11T09:36:43;39.80;20.30
18291;DHT22;9271;48.590;8.866;2022-08-11T09:39:30;40.40;20.80
18291;DHT22;9271;48.590;8.866;2022-08-11T09:42:15;40.60;20.30
18291;DHT22;9271;48.590;8.866;2022-08-11T09:44:43;40.60;19.70
18291;DHT22;9271;48.590;8.866;2022-08-11T09:47:19;41.30;19.10
18291;DHT22;9271;48.590;8.866;2022-08-11T09:49:49;40.40;19.90
18291;DHT22;9271;48.590;8.866;2022-08-11T09:52:18;40.20;20.50
18291;DHT22;9271;48.590;8.866;2022-08-11T09:54:47;40.30;20.00
18291;DHT22;9271;48.590;8.866;2022-08-11T09:57:17;38.40;21.00
18291;DHT22;9271;48.590;8.866;2022-08-11T10:00:02;39.20;20.60
18291;DHT22;9271;48.590;8.866;2022-08-11T10:02:30;40.80;20.40
18291;DHT22;9271;48.590;8.866;2022-08-11T10:04:58;41.40;18.60
18291;DHT22;9271;48.590;8.866;2022-08-11T10:07:40;41.80;18.20
18291;DHT22;9271;48.590;8.866;2022-08-11T10:10:08;40.60;18.90
18291;DHT22;9271;48.590;8.866;2022-08-11T10:12:39;39.80;20.00
18291;DHT22;9271;48.590;8.866;2022-08-11T10:15:09;39.70;19.80
18291;DHT22;9271;48.590;8.866;2022-08-11T10:17:57;40.50;19.00
18291;DHT22;9271;48.590;8.866;2022-08-11T10:20:44;42.00;19.30
18291;DHT22;9271;48.590;8.866;2022-08-11T10:23:15;42.50;18.60
18291;DHT22;9271;48.590;8.866;2022-08-11T10:25:59;43.60;17.20
18291;DHT22;9271;48.590;8.866;2022-08-11T10:28:45;43.40;18.00
18291;DHT22;9271;48.590;8.866;2022-08-11T10:31:12;44.40;16.30
18291;DHT22;9271;48.590;8.866;2022-08-11T10:33:58;45.00;15.70
18291;DHT22;9271;48.590;8.866;2022-08-11T10:36:29;43.60;16.80
18291;DHT22;9271;48.590;8.866;2022-08-11T10:38:57;43.60;16.60
18291;DHT22;9271;48.590;8.866;2022-08-11T10:41:25;42.90;18.20
18291;DHT22;9271;48.590;8.866;2022-08-11T10:44:11;43.80;17.70
18291;DHT22;9271;48.590;8.866;2022-08-11T10:46:38;45.00;16.90
18291;DHT22;9271;48.590;8.866;2022-08-11T10:49:25;45.50;15.20
18291;DHT22;9271;48.590;8.866;2022-08-11T10:51:54;43.80;15.60
18291;DHT22;9271;48.590;8.866;2022-08-11T10:54:40;43.60;16.10
18291;DHT22;9271;48.590;8.866;2022-08-11T10:57:26;43.40;16.40
18291;DHT22;9271;48.590;8.866;2022-08-11T11:00:11;43.30;17.10
18291;DHT22;9271;48.590;8.866;2022-08-11T11:02:39;42.60;17.80
18291;DHT22;9271;48.590;8.866;2022-08-11T11:05:11;43.40;17.50
18291;DHT22;9271;48.590;8.866;2022-08-11T11:07:46;44.20;17.20
18291;DHT22;9271;48.590;8.866;2022-08-11T11:10:15;45.20;17.50
18291;DHT22;9271;48.590;8.866;2022-08-11T11:12:44;45.30;16.50
18291;DHT22;9271;48.590;8.866;2022-08-11T11:15:34;45.50;16.20
18291;DHT22;9271;48.590;8.866;2022-08-11T11:18:21;45.10;16.10
18291;DHT22;9271;48.590;8.866;2022-08-11T11:20:53;45.50;15.80
18291;DHT22;9271;48.590;8.866;2022-08-11T11:23:25;45.40;15.70
18291;DHT22;9271;48.590;8.866;2022-08-11T11:26:16;45.10;15.50
18291;DHT22;9271;48.590;8.866;2022-08-11T11:29:19;45.70;15.80
18291;DHT22;9271;48.590;8.866;2022-08-11T11:32:08;45.40;15.60
18291;DHT22;9271;48.590;8.866;2022-08-11T11:34:50;45.30;16.30
18291;DHT22;9271;48.590;8.866;2022-08-11T11:37:25;44.10;15.70
18291;DHT22;9271;48.590;8.866;2022-08-11T11:39:56;44.50;16.30
18291;DHT22;9271;48.590;8.866;2022-08-11T11:42:24;44.10;16.60
18291;DHT22;9271;48.590;8.866;2022-08-11T11:44:51;44.70;15.60
18291;DHT22;9271;48.590;8.866;2022-08-11T11:47:18;44.70;15.70
18291;DHT22;9271;48.590;8.866;2022-08-11T11:49:48;45.10;16.10
18291;DHT22;9271;48.590;8.866;2022-08-11T11:52:16;44.80;15.40
18291;DHT22;9271;48.590;8.866;2022-08-11T11:54:46;45.10;14.90
18291;DHT22;9271;48.590;8.866;2022-08-11T11:57:16;45.30;15.00
18291;DHT22;9271;48.590;8.866;2022-08-11T12:00:03;44.60;14.40
18291;DHT22;9271;48.590;8.866;2022-08-11T12:02:48;45.20;14.70
18291;DHT22;9271;48.590;8.866;2022-08-11T12:05:16;45.20;15.40
18291;DHT22;9271;48.590;8.866;2022-08-11T12:07:43;45.40;14.50
18291;DHT22;9271;48.590;8.866;2022-08-11T12:10:30;44.80;14.80
18291;DHT22;9271;48.590;8.866;2022-08-11T12:12:58;43.90;14.90
18291;DHT22;9271;48.590;8.866;2022-08-11T12:15:44;43.30;15.50
18291;DHT22;9271;48.590;8.866;2022-08-11T12:18:11;45.10;15.00
18291;DHT22;9271;48.590;8.866;2022-08-11T12:20:39;45.20;14.60
18291;DHT22;9271;48.590;8.866;2022-08-11T12:23:06;45.70;13.90
18291;DHT22;9271;48.590;8.866;2022-08-11T12:25:52;45.10;14.10
18291;DHT22;9271;48.590;8.866;2022-08-11T12:28:36;44.40;14.50
18291;DHT22;9271;48.590;8.866;2022-08-11T12:31:05;45.00;15.30
18291;DHT22;9271;48.590;8.866;2022-08-11T12:33:34;45.40;14.50
18291;DHT22;9271;48.590;8.866;2022-08-11T12:36:01;45.30;15.20
18291;DHT22;9271;48.590;8.866;2022-08-11T12:38:29;46.00;14.30
18291;DHT22;9271;48.590;8.866;2022-08-11T12:40:58;44.20;15.40
18291;DHT22;9271;48.590;8.866;2022-08-11T12:43:44;44.20;15.50
18291;DHT22;9271;48.590;8.866;2022-08-11T12:46:32;45.20;15.30
18291;DHT22;9271;48.590;8.866;2022-08-11T12:49:03;45.80;14.50
18291;DHT22;9271;48.590;8.866;2022-08-11T12:51:52;45.30;14.80
18291;DHT22;9271;48.590;8.866;2022-08-11T12:54:28;45.40;14.80
18291;DHT22;9271;48.590;8.866;2022-08-11T12:57:02;44.70;14.40
18291;DHT22;9271;48.590;8.866;2022-08-11T12:59:47;43.80;14.60
18291;DHT22;9271;48.590;8.866;2022-08-11T13:02:32;43.90;15.40
18291;DHT22;9271;48.590;8.866;2022-08-11T13:05:17;45.30;14.30
18291;DHT22;9271;48.590;8.866;2022-08-11T13:07:46;44.80;14.60
18291;DHT22;9271;48.590;8.866;2022-08-11T13:10:14;44.60;14.50
18291;DHT22;9271;48.590;8.866;2022-08-11T13:13:06;44.70;14.00
18291;DHT22;9271;48.590;8.866;2022-08-11T13:15:33;44.40;14.90
18291;DHT22;9271;48.590;8.866;2022-08-11T13:18:02;44.40;14.40
18291;DHT22;9271;48.590;8.866;2022-08-11T13:20:32;44.70;14.60
18291;DHT22;9271;48.590;8.866;2022-08-11T13:23:00;44.90;14.40
18291;DHT22;9271;48.590;8.866;2022-08-11T13:25:29;44.70;15.40
18291;DHT22;9271;48.590;8.866;2022-08-11T13:27:58;44.80;14.80
18291;DHT22;9271;48.590;8.866;2022-08-11T13:30:29;44.80;15.00
18291;DHT22;9271;48.590;8.866;2022-08-11T13:33:14;45.30;14.80
18291;DHT22;9271;48.590;8.866;2022-08-11T13:35:43;44.90;14.40
18291;DHT22;9271;48.590;8.866;2022-08-11T13:38:11;44.30;15.50
18291;DHT22;9271;48.590;8.866;2022-08-11T13:40:39;44.00;15.00
18291;DHT22;9271;48.590;8.866;2022-08-11T13:43:07;44.70;14.90
18291;DHT22;9271;48.590;8.866;2022-08-11T13:45:36;44.40;14.70
18291;DHT22;9271;48.590;8.866;2022-08-11T13:48:07;43.80;15.10
18291;DHT22;9271;48.590;8.866;2022-08-11T13:50:35;43.20;15.60
18291;DHT22;9271;48.590;8.866;2022-08-11T13:53:22;43.00;15.50
18291;DHT22;9271;48.590;8.866;2022-08-11T13:55:49;43.00;16.10
18291;DHT22;9271;48.590;8.866;2022-08-11T13:58:16;43.50;15.40
18291;DHT22;9271;48.590;8.866;2022-08-11T14:00:49;43.60;15.20
18291;DHT22;9271;48.590;8.866;2022-08-11T14:03:19;43.50;15.10
18291;DHT22;9271;48.590;8.866;2022-08-11T14:05:50;43.90;14.90
18291;DHT22;9271;48.590;8.866;2022-08-11T14:08:21;42.70;15.00
18291;DHT22;9271;48.590;8.866;2022-08-11T14:10:50;42.80;16.00
18291;DHT22;9271;48.590;8.866;2022-08-11T14:13:39;42.80;15.30
18291;DHT22;9271;48.590;8.866;2022-08-11T14:16:10;42.30;15.60
18291;DHT22;9271;48.590;8.866;2022-08-11T14:18:42;42.30;16.30
18291;DHT22;9271;48.590;8.866;2022-08-11T14:21:13;41.20;15.80
18291;DHT22;9271;48.590;8.866;2022-08-11T14:23:58;40.80;15.70
18291;DHT22;9271;48.590;8.866;2022-08-11T14:26:26;40.20;16.80
18291;DHT22;9271;48.590;8.866;2022-08-11T14:28:55;40.10;16.70
18291;DHT22;9271;48.590;8.866;2022-08-11T14:31:25;40.70;16.70
18291;DHT22;9271;48.590;8.866;2022-08-11T14:33:54;40.50;16.60
18291;DHT22;9271;48.590;8.866;2022-08-11T14:36:23;40.60;16.80
18291;DHT22;9271;48.590;8.866;2022-08-11T14:38:51;40.00;17.50
18291;DHT22;9271;48.590;8.866;2022-08-11T14:41:19;40.40;17.50
18291;DHT22;9271;48.590;8.866;2022-08-11T14:44:05;40.20;17.00
18291;DHT22;9271;48.590;8.866;2022-08-11T14:46:53;40.10;17.50
18291;DHT22;9271;48.590;8.866;2022-08-11T14:49:35;39.80;17.20
18291;DHT22;9271;48.590;8.866;2022-08-11T14:52:05;40.10;17.40
18291;DHT22;9271;48.590;8.866;2022-08-11T14:54:32;40.40;17.90
18291;DHT22;9271;48.590;8.866;2022-08-11T14:57:19;40.20;17.80
18291;DHT22;9271;48.590;8.866;2022-08-11T14:59:48;39.80;18.00
18291;DHT22;9271;48.590;8.866;2022-08-11T15:02:17;39.80;17.60
18291;DHT22;9271;48.590;8.866;2022-08-11T15:05:03;39.00;17.50
18291;DHT22;9271;48.590;8.866;2022-08-11T15:07:31;38.60;18.60
18291;DHT22;9271;48.590;8.866;2022-08-11T15:10:01;38.20;18.00
18291;DHT22;9271;48.590;8.866;2022-08-11T15:12:29;38.10;18.40
18291;DHT22;9271;48.590;8.866;2022-08-11T15:14:57;37.90;19.00
18291;DHT22;9271;48.590;8.866;2022-08-11T15:17:43;37.90;18.40
18291;DHT22;9271;48.590;8.866;2022-08-11T15:20:15;36.50;19.70
18291;DHT22;9271;48.590;8.866;2022-08-11T15:23:00;36.70;19.60
18291;DHT22;9271;48.590;8.866;2022-08-11T15:25:48;36.90;19.20
18291;DHT22;9271;48.590;8.866;2022-08-11T15:28:17;36.30;19.20
18291;DHT22;9271;48.590;8.866;2022-08-11T15:31:03;36.10;19.60
18291;DHT22;9271;48.590;8.866;2022-08-11T15:34:05;36.10;20.10
18291;DHT22;9271;48.590;8.866;2022-08-11T15:36:55;36.40;20.30
18291;DHT22;9271;48.590;8.866;2022-08-11T15:39:46;36.40;19.90
18291;DHT22;9271;48.590;8.866;2022-08-11T15:42:28;36.00;20.10
18291;DHT22;9271;48.590;8.866;2022-08-11T15:45:14;35.70;19.90
18291;DHT22;9271;48.590;8.866;2022-08-11T15:48:06;35.70;20.80
18291;DHT22;9271;48.590;8.866;2022-08-11T15:50:47;35.10;20.90
18291;DHT22;9271;48.590;8.866;2022-08-11T15:53:22;34.90;21.70
18291;DHT22;9271;48.590;8.866;2022-08-11T15:55:50;34.80;21.70
18291;DHT22;9271;48.590;8.866;2022-08-11T15:58:17;35.00;21.10
18291;DHT22;9271;48.590;8.866;2022-08-11T16:01:04;34.80;20.50
18291;DHT22;9271;48.590;8.866;2022-08-11T16:03:54;34.70;21.30
18291;DHT22;9271;48.590;8.866;2022-08-11T16:06:44;34.40;21.30
18291;DHT22;9271;48.590;8.866;2022-08-11T16:09:12;34.00;21.50
18291;DHT22;9271;48.590;8.866;2022-08-11T16:11:40;33.90;21.80
18291;DHT22;9271;48.590;8.866;2022-08-11T16:14:10;33.80;21.90
18291;DHT22;9271;48.590;8.866;2022-08-11T16:16:56;33.70;22.10
18291;DHT22;9271;48.590;8.866;2022-08-11T16:19:24;33.70;22.60
18291;DHT22;9271;48.590;8.866;2022-08-11T16:21:55;33.60;22.00
18291;DHT22;9271;48.590;8.866;2022-08-11T16:24:22;33.20;22.30
18291;DHT22;9271;48.590;8.866;2022-08-11T16:26:51;33.00;22.50
18291;DHT22;9271;48.590;8.866;2022-08-11T16:29:20;32.80;22.70
18291;DHT22;9271;48.590;8.866;2022-08-11T16:31:50;32.60;22.40
18291;DHT22;9271;48.590;8.866;2022-08-11T16:34:33;32.60;22.90
18291;DHT22;9271;48.590;8.866;2022-08-11T16:37:16;32.30;23.50
18291;DHT22;9271;48.590;8.866;2022-08-11T16:40:02;32.20;23.60
18291;DHT22;9271;48.590;8.866;2022-08-11T16:42:29;32.00;23.50
18291;DHT22;9271;48.590;8.866;2022-08-11T16:45:14;32.00;24.10
18291;DHT22;9271;48.590;8.866;2022-08-11T16:47:59;31.50;24.10
18291;DHT22;9271;48.590;8.866;2022-08-11T16:50:26;31.10;24.60
18291;DHT22;9271;48.590;8.866;2022-08-11T16:52:55;31.10;24.30
18291;DHT22;9271;48.590;8.866;2022-08-11T16:55:23;30.80;24.40
18291;DHT22;9271;48.590;8.866;2022-08-11T16:57:50;30.60;24.60
18291;DHT22;9271;48.590;8.866;2022-08-11T17:00:36;30.60;24.80
18291;DHT22;9271;48.590;8.866;2022-08-11T17:03:06;30.80;24.80
18291;DHT22;9271;48.590;8.866;2022-08-11T17:05:52;30.70;24.40
18291;DHT22;9271;48.590;8.866;2022-08-11T17:08:43;30.60;24.70
18291;DHT22;9271;48.590;8.866;2022-08-11T17:11:31;30.50;24.60
18291;DHT22;9271;48.590;8.866;2022-08-11T17:14:22;30.50;25.20
18291;DHT22;9271;48.590;8.866;2022-08-11T17:16:50;30.30;25.50
18291;DHT22;9271;48.590;8.866;2022-08-11T17:19:21;30.20;25.20
18291;DHT22;9271;48.590;8.866;2022-08-11T17:21:49;29.80;25.80
18291;DHT22;9271;48.590;8.866;2022-08-11T17:24:38;29.60;26.00
18291;DHT22;9271;48.590;8.866;2022-08-11T17:27:06;29.60;26.10
18291;DHT22;9271;48.590;8.866;2022-08-11T17:29:36;29.80;25.90